createdAt,value
2019-04-03T00:00:00.069Z,62.60
2019-04-03T00:00:35.902Z,62.70
2019-04-03T00:01:11.133Z,62.70
2019-04-03T00:01:45.011Z,62.70
2019-04-03T00:02:17.691Z,62.70
2019-04-03T00:02:50.235Z,62.70
2019-04-03T00:03:22.770Z,62.80
2019-04-03T00:03:55.329Z,62.80
2019-04-03T00:04:28.150Z,62.80
2019-04-03T00:05:00.722Z,62.90
2019-04-03T00:05:33.699Z,62.90
2019-04-03T00:06:07.955Z,62.90
2019-04-03T00:06:40.823Z,62.90
2019-04-03T00:07:13.467Z,62.90
2019-04-03T00:07:46.342Z,63.00
2019-04-03T00:08:18.891Z,63.00
2019-04-03T00:08:51.453Z,63.00
2019-04-03T00:09:24.416Z,62.80
2019-04-03T00:09:57.338Z,62.90
2019-04-03T00:10:30.147Z,63.00
2019-04-03T00:11:03.443Z,63.00
2019-04-03T00:11:36.135Z,63.00
2019-04-03T00:12:10.360Z,63.00
2019-04-03T00:12:43.031Z,63.40
2019-04-03T00:13:15.698Z,63.00
2019-04-03T00:13:48.302Z,63.00
2019-04-03T00:14:21.009Z,63.10
2019-04-03T00:14:53.546Z,63.00
2019-04-03T00:15:26.426Z,63.10
2019-04-03T00:15:59.125Z,63.00
2019-04-03T00:16:31.679Z,63.10
2019-04-03T00:17:04.235Z,63.10
2019-04-03T00:17:36.787Z,63.20
2019-04-03T00:18:09.330Z,63.20
2019-04-03T00:18:41.884Z,63.20
2019-04-03T00:19:17.323Z,63.20
2019-04-03T00:19:49.224Z,63.30
2019-04-03T00:20:21.774Z,63.40
2019-04-03T00:20:54.310Z,63.30
2019-04-03T00:21:26.899Z,63.30
2019-04-03T00:21:59.447Z,63.20
2019-04-03T00:22:31.993Z,63.50
2019-04-03T00:23:05.547Z,63.80
2019-04-03T00:23:38.091Z,63.40
2019-04-03T00:24:10.638Z,63.30
2019-04-03T00:24:45.291Z,63.20
2019-04-03T00:25:17.882Z,63.30
2019-04-03T00:25:52.105Z,63.20
2019-04-03T00:26:25.137Z,63.20
2019-04-03T00:26:57.716Z,63.30
2019-04-03T00:27:30.263Z,63.40
2019-04-03T00:28:02.806Z,63.30
2019-04-03T00:28:35.733Z,63.30
2019-04-03T00:29:08.276Z,63.30
2019-04-03T00:29:40.816Z,63.40
2019-04-03T00:30:14.039Z,63.50
2019-04-03T00:30:46.696Z,63.60
2019-04-03T00:31:19.792Z,63.50
2019-04-03T00:31:53.681Z,63.50
2019-04-03T00:32:26.586Z,64.00
2019-04-03T00:32:59.474Z,63.60
2019-04-03T00:33:32.303Z,63.60
2019-04-03T00:34:04.939Z,63.60
2019-04-03T00:34:37.494Z,63.70
2019-04-03T00:35:10.534Z,63.70
2019-04-03T00:35:43.095Z,63.70
2019-04-03T00:36:15.778Z,63.80
2019-04-03T00:36:48.313Z,63.70
2019-04-03T00:37:22.821Z,63.60
2019-04-03T00:37:55.262Z,63.60
2019-04-03T00:38:28.169Z,63.70
2019-04-03T00:39:00.718Z,63.90
2019-04-03T00:39:33.256Z,63.80
2019-04-03T00:40:06.683Z,63.80
2019-04-03T00:40:39.567Z,64.40
2019-04-03T00:41:12.222Z,63.80
2019-04-03T00:41:44.773Z,63.80
2019-04-03T00:42:17.323Z,63.80
2019-04-03T00:42:49.866Z,63.90
2019-04-03T00:43:24.398Z,63.90
2019-04-03T00:43:56.834Z,64.00
2019-04-03T00:44:29.913Z,64.00
2019-04-03T00:45:03.820Z,64.00
2019-04-03T00:45:36.724Z,63.90
2019-04-03T00:46:09.475Z,64.50
2019-04-03T00:46:42.023Z,63.90
2019-04-03T00:47:14.659Z,64.00
2019-04-03T00:47:47.226Z,64.10
2019-04-03T00:48:19.787Z,64.70
2019-04-03T00:48:52.371Z,64.10
2019-04-03T00:49:26.092Z,64.10
2019-04-03T00:49:59.070Z,64.20
2019-04-03T00:50:31.606Z,64.20
2019-04-03T00:51:04.420Z,64.10
2019-04-03T00:51:37.277Z,64.20
2019-04-03T00:52:09.818Z,64.10
2019-04-03T00:52:45.139Z,64.10
2019-04-03T00:53:19.272Z,64.20
2019-04-03T00:53:53.917Z,64.30
2019-04-03T00:54:27.359Z,64.20
2019-04-03T00:55:00.075Z,64.00
2019-04-03T00:55:32.645Z,64.00
2019-04-03T00:56:05.328Z,64.10
2019-04-03T00:56:37.928Z,64.10
2019-04-03T00:57:10.531Z,64.20
2019-04-03T00:57:43.768Z,64.40
2019-04-03T00:58:36.760Z,64.30
2019-04-03T00:59:10.039Z,64.30
2019-04-03T00:59:42.980Z,64.20
2019-04-03T01:00:15.756Z,64.30
2019-04-03T01:00:48.298Z,64.30
2019-04-03T01:01:20.846Z,64.40
2019-04-03T01:01:54.761Z,64.40
2019-04-03T01:02:28.191Z,64.30
2019-04-03T01:03:01.299Z,64.30
2019-04-03T01:03:33.847Z,64.50
2019-04-03T01:04:06.596Z,64.60
2019-04-03T01:04:39.141Z,64.60
2019-04-03T01:05:12.222Z,64.60
2019-04-03T01:05:44.777Z,64.70
2019-04-03T01:06:17.654Z,64.70
2019-04-03T01:06:50.234Z,64.80
2019-04-03T01:07:23.463Z,64.80
2019-04-03T01:07:56.007Z,64.80
2019-04-03T01:08:29.343Z,64.90
2019-04-03T01:09:02.328Z,64.90
2019-04-03T01:09:35.243Z,65.00
2019-04-03T01:10:07.786Z,65.20
2019-04-03T01:10:40.373Z,65.10
2019-04-03T01:11:13.087Z,65.10
2019-04-03T01:11:45.639Z,65.00
2019-04-03T01:12:18.210Z,65.10
2019-04-03T01:12:50.750Z,65.10
2019-04-03T01:13:23.311Z,65.10
2019-04-03T01:13:56.182Z,65.10
2019-04-03T01:14:31.304Z,65.30
2019-04-03T01:15:03.389Z,65.30
2019-04-03T01:15:35.930Z,65.40
2019-04-03T01:16:08.593Z,65.50
2019-04-03T01:16:41.298Z,65.60
2019-04-03T01:17:14.259Z,65.70
2019-04-03T01:17:46.814Z,65.50
2019-04-03T01:18:19.874Z,65.50
2019-04-03T01:18:52.858Z,65.60
2019-04-03T01:19:26.039Z,65.60
2019-04-03T01:19:58.587Z,65.60
2019-04-03T01:20:31.592Z,65.60
2019-04-03T01:21:06.177Z,65.70
2019-04-03T01:21:39.143Z,65.70
2019-04-03T01:22:12.016Z,65.80
2019-04-03T01:22:44.567Z,65.70
2019-04-03T01:23:17.212Z,65.70
2019-04-03T01:23:49.749Z,65.70
2019-04-03T01:24:22.711Z,65.70
2019-04-03T01:24:55.260Z,65.70
2019-04-03T01:25:27.806Z,65.70
2019-04-03T01:26:00.386Z,65.60
2019-04-03T01:26:32.911Z,65.60
2019-04-03T01:27:05.897Z,65.60
2019-04-03T01:27:41.221Z,65.80
2019-04-03T01:28:12.795Z,65.80
2019-04-03T01:28:45.365Z,65.90
2019-04-03T01:29:17.941Z,65.90
2019-04-03T01:29:50.882Z,65.90
2019-04-03T01:30:23.624Z,65.90
2019-04-03T01:30:56.204Z,66.00
2019-04-03T01:31:28.760Z,66.20
2019-04-03T01:32:01.527Z,66.20
2019-04-03T01:32:34.149Z,66.20
2019-04-03T01:33:06.792Z,66.30
2019-04-03T01:33:39.391Z,66.60
2019-04-03T01:34:11.968Z,66.60
2019-04-03T01:34:47.035Z,66.40
2019-04-03T01:35:19.200Z,66.40
2019-04-03T01:35:52.159Z,66.50
2019-04-03T01:36:24.917Z,66.50
2019-04-03T01:36:58.024Z,66.70
2019-04-03T01:37:31.040Z,66.60
2019-04-03T01:38:03.672Z,66.70
2019-04-03T01:38:38.422Z,66.70
2019-04-03T01:39:11.013Z,66.70
2019-04-03T01:39:44.537Z,66.70
2019-04-03T01:40:19.977Z,66.80
2019-04-03T01:40:51.734Z,66.80
2019-04-03T01:41:24.307Z,66.90
2019-04-03T01:41:57.292Z,67.10
2019-04-03T01:42:30.641Z,67.00
2019-04-03T01:43:03.557Z,67.00
2019-04-03T01:43:37.436Z,67.00
2019-04-03T01:44:10.268Z,67.00
2019-04-03T01:44:43.613Z,67.00
2019-04-03T01:45:16.731Z,66.80
2019-04-03T01:45:49.314Z,67.60
2019-04-03T01:46:21.883Z,67.20
2019-04-03T01:46:57.230Z,67.20
2019-04-03T01:47:28.851Z,67.20
2019-04-03T01:48:01.619Z,67.20
2019-04-03T01:48:34.199Z,67.10
2019-04-03T01:49:07.147Z,67.10
2019-04-03T01:49:40.222Z,67.10
2019-04-03T01:50:13.538Z,67.20
2019-04-03T01:50:46.480Z,67.20
2019-04-03T01:51:20.014Z,67.20
2019-04-03T01:51:52.599Z,67.30
2019-04-03T01:52:25.935Z,67.30
2019-04-03T01:52:58.518Z,67.30
2019-04-03T01:53:32.766Z,67.40
2019-04-03T01:54:06.856Z,67.20
2019-04-03T01:54:39.898Z,67.20
2019-04-03T01:55:12.849Z,67.20
2019-04-03T01:55:46.293Z,67.20
2019-04-03T01:56:19.375Z,67.20
2019-04-03T01:56:51.881Z,67.30
2019-04-03T01:57:25.228Z,67.30
2019-04-03T01:57:59.255Z,67.20
2019-04-03T01:58:31.985Z,67.40
2019-04-03T01:59:06.851Z,67.30
2019-04-03T01:59:39.821Z,67.50
2019-04-03T02:00:12.529Z,67.50
2019-04-03T02:00:46.372Z,67.40
2019-04-03T02:01:18.961Z,67.30
2019-04-03T02:01:52.849Z,67.40
2019-04-03T02:02:25.514Z,67.30
2019-04-03T02:03:01.898Z,67.30
2019-04-03T02:03:33.992Z,67.30
2019-04-03T02:04:07.086Z,67.40
2019-04-03T02:04:42.028Z,67.30
2019-04-03T02:05:15.072Z,67.30
2019-04-03T02:05:47.677Z,67.40
2019-04-03T02:06:20.257Z,67.50
2019-04-03T02:06:52.842Z,67.50
2019-04-03T02:07:26.554Z,67.50
2019-04-03T02:07:59.787Z,67.40
2019-04-03T02:08:33.207Z,67.30
2019-04-03T02:09:09.564Z,67.70
2019-04-03T02:09:42.394Z,67.20
2019-04-03T02:10:18.289Z,67.30
2019-04-03T02:10:51.100Z,67.40
2019-04-03T02:11:24.332Z,67.40
2019-04-03T02:11:57.722Z,68.00
2019-04-03T02:12:30.308Z,67.60
2019-04-03T02:13:03.757Z,67.60
2019-04-03T02:13:36.331Z,67.60
2019-04-03T02:14:09.079Z,68.10
2019-04-03T02:14:42.222Z,67.60
2019-04-03T02:15:15.570Z,67.70
2019-04-03T02:15:48.287Z,67.60
2019-04-03T02:16:23.053Z,67.60
2019-04-03T02:16:56.158Z,67.60
2019-04-03T02:17:28.868Z,67.80
2019-04-03T02:18:02.172Z,67.60
2019-04-03T02:18:34.764Z,67.70
2019-04-03T02:19:08.165Z,67.80
2019-04-03T02:19:40.753Z,67.80
2019-04-03T02:20:13.863Z,67.90
2019-04-03T02:20:46.528Z,67.90
2019-04-03T02:21:19.265Z,68.00
2019-04-03T02:21:52.029Z,68.00
2019-04-03T02:22:25.973Z,68.00
2019-04-03T02:23:00.412Z,68.10
2019-04-03T02:23:33.233Z,68.00
2019-04-03T02:24:05.822Z,68.10
2019-04-03T02:24:38.718Z,68.10
2019-04-03T02:25:11.429Z,68.10
2019-04-03T02:25:44.705Z,68.30
2019-04-03T02:26:19.192Z,68.20
2019-04-03T02:26:52.088Z,68.20
2019-04-03T02:27:25.719Z,68.30
2019-04-03T02:27:58.796Z,68.50
2019-04-03T02:28:34.187Z,68.40
2019-04-03T02:29:08.682Z,69.10
2019-04-03T02:29:42.609Z,68.60
2019-04-03T02:30:16.095Z,68.50
2019-04-03T02:30:48.948Z,68.60
2019-04-03T02:31:21.733Z,68.70
2019-04-03T02:31:54.277Z,68.80
2019-04-03T02:32:28.211Z,68.80
2019-04-03T02:33:01.081Z,68.80
2019-04-03T02:33:34.634Z,68.90
2019-04-03T02:34:08.074Z,68.90
2019-04-03T02:34:41.486Z,69.00
2019-04-03T02:35:14.371Z,69.10
2019-04-03T02:35:47.808Z,68.90
2019-04-03T02:36:20.522Z,69.60
2019-04-03T02:36:53.329Z,69.00
2019-04-03T02:37:25.884Z,69.00
2019-04-03T02:38:00.285Z,69.00
2019-04-03T02:38:33.120Z,69.20
2019-04-03T02:39:06.314Z,69.30
2019-04-03T02:39:39.017Z,69.30
2019-04-03T02:40:12.088Z,69.10
2019-04-03T02:40:45.006Z,69.20
2019-04-03T02:41:18.234Z,69.40
2019-04-03T02:41:51.359Z,69.30
2019-04-03T02:42:25.012Z,69.40
2019-04-03T02:42:57.972Z,69.50
2019-04-03T02:43:31.228Z,69.50
2019-04-03T02:44:04.297Z,69.60
2019-04-03T02:44:38.001Z,69.50
2019-04-03T02:45:10.880Z,69.40
2019-04-03T02:45:43.441Z,69.50
2019-04-03T02:46:16.210Z,69.50
2019-04-03T02:46:49.467Z,69.50
2019-04-03T02:47:22.889Z,69.50
2019-04-03T02:47:55.722Z,69.60
2019-04-03T02:48:28.709Z,69.60
2019-04-03T02:49:01.704Z,69.60
2019-04-03T02:49:35.788Z,69.60
2019-04-03T02:50:08.423Z,69.60
2019-04-03T02:50:41.073Z,69.60
2019-04-03T02:51:13.817Z,69.60
2019-04-03T02:51:47.175Z,69.70
2019-04-03T02:52:20.187Z,69.80
2019-04-03T02:52:57.976Z,69.80
2019-04-03T02:53:31.177Z,69.80
2019-04-03T02:54:09.824Z,69.70
2019-04-03T02:54:43.814Z,69.60
2019-04-03T02:55:16.918Z,69.50
2019-04-03T02:55:50.183Z,69.80
2019-04-03T02:56:23.177Z,69.50
2019-04-03T02:56:56.425Z,69.50
2019-04-03T02:57:29.360Z,69.40
2019-04-03T02:58:02.771Z,69.40
2019-04-03T02:58:36.039Z,69.40
2019-04-03T02:59:08.798Z,69.40
2019-04-03T02:59:42.017Z,69.40
2019-04-03T03:00:16.253Z,69.50
2019-04-03T03:00:50.300Z,69.60
2019-04-03T03:01:25.005Z,69.60
2019-04-03T03:01:58.435Z,69.60
2019-04-03T03:02:31.686Z,69.60
2019-04-03T03:03:04.271Z,69.60
2019-04-03T03:03:37.921Z,69.60
2019-04-03T03:04:10.881Z,69.70
2019-04-03T03:04:43.833Z,69.70
2019-04-03T03:05:16.655Z,69.80
2019-04-03T03:05:49.307Z,69.80
2019-04-03T03:06:23.310Z,69.60
2019-04-03T03:06:56.532Z,69.70
2019-04-03T03:07:30.097Z,69.70
2019-04-03T03:08:03.599Z,69.80
2019-04-03T03:08:40.350Z,69.80
2019-04-03T03:09:13.540Z,69.90
2019-04-03T03:09:47.733Z,69.90
2019-04-03T03:10:21.508Z,69.80
2019-04-03T03:10:55.667Z,69.80
2019-04-03T03:11:29.230Z,69.80
2019-04-03T03:12:04.513Z,69.70
2019-04-03T03:12:37.699Z,69.70
2019-04-03T03:13:10.428Z,69.80
2019-04-03T03:13:43.821Z,69.90
2019-04-03T03:14:17.529Z,69.90
2019-04-03T03:14:51.795Z,69.90
2019-04-03T03:15:26.875Z,70.00
2019-04-03T03:15:59.912Z,70.00
2019-04-03T03:16:32.645Z,70.10
2019-04-03T03:17:05.978Z,70.10
2019-04-03T03:17:39.587Z,70.20
2019-04-03T03:18:13.088Z,70.10
2019-04-03T03:18:45.716Z,70.20
2019-04-03T03:19:20.993Z,70.20
2019-04-03T03:19:54.449Z,70.10
2019-04-03T03:20:29.820Z,70.10
2019-04-03T03:21:03.293Z,70.10
2019-04-03T03:21:37.089Z,70.10
2019-04-03T03:22:10.361Z,70.00
2019-04-03T03:22:44.124Z,70.20
2019-04-03T03:23:17.934Z,70.30
2019-04-03T03:23:50.617Z,70.30
2019-04-03T03:24:23.952Z,70.30
2019-04-03T03:24:59.721Z,70.20
2019-04-03T03:25:33.738Z,70.20
2019-04-03T03:26:07.448Z,70.20
2019-04-03T03:26:40.760Z,70.30
2019-04-03T03:27:14.102Z,70.30
2019-04-03T03:27:46.959Z,70.40
2019-04-03T03:28:19.645Z,70.40
2019-04-03T03:28:57.213Z,70.50
2019-04-03T03:29:31.427Z,70.60
2019-04-03T03:30:28.447Z,70.50
2019-04-03T03:30:47.134Z,70.50
2019-04-03T03:31:14.236Z,70.50
2019-04-03T03:32:04.383Z,70.60
2019-04-03T03:32:30.644Z,70.60
2019-04-03T03:33:22.382Z,70.70
2019-04-03T03:33:38.800Z,70.80
2019-04-03T03:34:11.131Z,70.90
2019-04-03T03:34:56.015Z,70.80
2019-04-03T03:35:28.003Z,70.90
2019-04-03T03:35:56.255Z,70.80
2019-04-03T03:36:30.465Z,70.80
2019-04-03T03:37:03.945Z,70.70
2019-04-03T03:37:37.244Z,70.70
2019-04-03T03:38:10.783Z,70.80
2019-04-03T03:38:44.663Z,70.90
2019-04-03T03:39:18.345Z,71.00
2019-04-03T03:39:52.127Z,71.10
2019-04-03T03:40:27.149Z,71.20
2019-04-03T03:41:00.920Z,71.10
2019-04-03T03:41:34.942Z,71.00
2019-04-03T03:42:08.649Z,71.10
2019-04-03T03:42:42.264Z,71.10
2019-04-03T03:43:15.806Z,71.20
2019-04-03T03:43:48.595Z,71.20
2019-04-03T03:44:21.889Z,71.40
2019-04-03T03:45:01.215Z,71.20
2019-04-03T03:45:33.957Z,71.30
2019-04-03T03:46:06.846Z,71.40
2019-04-03T03:46:40.248Z,71.30
2019-04-03T03:47:13.718Z,71.30
2019-04-03T03:47:50.008Z,71.40
2019-04-03T03:48:23.100Z,71.40
2019-04-03T03:48:56.475Z,71.50
2019-04-03T03:49:29.336Z,71.40
2019-04-03T03:50:03.132Z,71.50
2019-04-03T03:50:36.297Z,71.50
2019-04-03T03:51:09.520Z,71.70
2019-04-03T03:51:43.058Z,71.70
2019-04-03T03:52:15.933Z,71.80
2019-04-03T03:52:49.580Z,71.70
2019-04-03T03:53:22.330Z,71.70
2019-04-03T03:53:56.354Z,72.30
2019-04-03T03:54:29.115Z,71.90
2019-04-03T03:55:02.790Z,71.90
2019-04-03T03:55:36.781Z,72.00
2019-04-03T03:56:09.860Z,72.00
2019-04-03T03:56:43.950Z,72.00
2019-04-03T03:57:16.943Z,72.00
2019-04-03T03:57:50.684Z,71.90
2019-04-03T03:58:23.363Z,72.00
2019-04-03T03:58:57.935Z,72.20
2019-04-03T03:59:30.922Z,72.20
2019-04-03T04:00:05.357Z,72.30
2019-04-03T04:00:38.905Z,72.30
2019-04-03T04:01:12.020Z,72.30
2019-04-03T04:01:44.909Z,72.20
2019-04-03T04:02:17.734Z,72.20
2019-04-03T04:02:50.869Z,72.60
2019-04-03T04:03:23.716Z,72.10
2019-04-03T04:03:57.045Z,72.00
2019-04-03T04:04:30.579Z,72.10
2019-04-03T04:05:03.434Z,72.10
2019-04-03T04:05:36.657Z,72.10
2019-04-03T04:06:11.304Z,71.90
2019-04-03T04:06:43.893Z,72.10
2019-04-03T04:07:18.100Z,72.00
2019-04-03T04:07:51.357Z,72.00
2019-04-03T04:08:24.576Z,72.10
2019-04-03T04:08:58.115Z,72.00
2019-04-03T04:09:30.941Z,72.00
2019-04-03T04:10:05.416Z,72.00
2019-04-03T04:10:38.030Z,72.00
2019-04-03T04:11:11.677Z,72.10
2019-04-03T04:11:45.567Z,72.00
2019-04-03T04:12:19.316Z,72.10
2019-04-03T04:12:52.697Z,72.20
2019-04-03T04:13:26.598Z,72.10
2019-04-03T04:13:59.969Z,72.10
2019-04-03T04:14:32.954Z,72.00
2019-04-03T04:15:05.926Z,72.00
2019-04-03T04:15:39.201Z,72.00
2019-04-03T04:16:12.303Z,72.00
2019-04-03T04:16:45.861Z,72.00
2019-04-03T04:17:19.623Z,71.90
2019-04-03T04:17:53.562Z,72.00
2019-04-03T04:18:26.203Z,71.90
2019-04-03T04:18:58.788Z,71.90
2019-04-03T04:19:31.805Z,72.10
2019-04-03T04:20:06.744Z,72.00
2019-04-03T04:20:40.341Z,72.00
2019-04-03T04:21:14.361Z,71.90
2019-04-03T04:21:47.593Z,72.00
2019-04-03T04:22:26.287Z,71.80
2019-04-03T04:22:58.451Z,71.80
2019-04-03T04:23:32.384Z,71.80
2019-04-03T04:24:05.900Z,71.80
2019-04-03T04:24:39.047Z,71.80
2019-04-03T04:25:12.003Z,71.80
2019-04-03T04:25:44.983Z,71.70
2019-04-03T04:26:17.751Z,71.70
2019-04-03T04:26:50.633Z,71.60
2019-04-03T04:27:23.926Z,71.70
2019-04-03T04:27:57.394Z,71.60
2019-04-03T04:28:30.405Z,71.60
2019-04-03T04:29:04.182Z,71.60
2019-04-03T04:29:37.729Z,71.70
2019-04-03T04:30:12.088Z,71.60
2019-04-03T04:30:48.174Z,71.60
2019-04-03T04:31:21.189Z,71.60
2019-04-03T04:31:53.802Z,71.80
2019-04-03T04:32:26.755Z,71.90
2019-04-03T04:33:00.001Z,71.90
2019-04-03T04:33:32.587Z,71.80
2019-04-03T04:34:06.186Z,71.80
2019-04-03T04:34:39.377Z,71.80
2019-04-03T04:35:12.111Z,72.00
2019-04-03T04:35:45.676Z,71.90
2019-04-03T04:36:18.253Z,71.90
2019-04-03T04:36:53.085Z,71.90
2019-04-03T04:37:26.863Z,72.00
2019-04-03T04:37:59.633Z,71.90
2019-04-03T04:38:32.186Z,71.90
2019-04-03T04:39:06.564Z,72.00
2019-04-03T04:39:39.876Z,72.00
2019-04-03T04:40:13.183Z,72.10
2019-04-03T04:40:46.191Z,72.10
2019-04-03T04:41:20.545Z,72.10
2019-04-03T04:41:53.647Z,72.10
2019-04-03T04:42:26.772Z,72.10
2019-04-03T04:43:03.379Z,72.00
2019-04-03T04:43:35.459Z,72.30
2019-04-03T04:44:09.892Z,72.10
2019-04-03T04:44:43.389Z,72.00
2019-04-03T04:45:16.009Z,72.00
2019-04-03T04:45:48.759Z,72.10
2019-04-03T04:46:21.706Z,72.20
2019-04-03T04:46:54.428Z,72.10
2019-04-03T04:47:27.935Z,72.10
2019-04-03T04:48:01.305Z,72.20
2019-04-03T04:48:34.539Z,72.10
2019-04-03T04:49:07.969Z,72.20
2019-04-03T04:49:41.231Z,72.20
2019-04-03T04:50:20.439Z,72.20
2019-04-03T04:50:55.116Z,72.80
2019-04-03T04:51:27.984Z,72.10
2019-04-03T04:52:00.728Z,72.20
2019-04-03T04:52:33.278Z,72.20
2019-04-03T04:53:06.869Z,72.10
2019-04-03T04:53:39.446Z,72.10
2019-04-03T04:54:13.217Z,72.20
2019-04-03T04:54:45.865Z,72.10
2019-04-03T04:55:19.104Z,72.10
2019-04-03T04:55:52.343Z,72.10
2019-04-03T04:56:26.046Z,72.20
2019-04-03T04:56:58.779Z,72.20
2019-04-03T04:57:31.363Z,72.20
2019-04-03T04:58:04.941Z,72.30
2019-04-03T04:58:38.264Z,72.20
2019-04-03T04:59:13.415Z,72.20
2019-04-03T04:59:46.580Z,72.20
2019-04-03T05:00:19.177Z,72.50
2019-04-03T05:00:53.278Z,72.40
2019-04-03T05:01:26.832Z,72.40
2019-04-03T05:01:59.434Z,72.40
2019-04-03T05:02:32.000Z,72.40
2019-04-03T05:03:06.869Z,72.40
2019-04-03T05:03:40.190Z,72.60
2019-04-03T05:04:15.136Z,72.60
2019-04-03T05:04:47.701Z,72.60
2019-04-03T05:05:20.445Z,72.60
2019-04-03T05:05:53.024Z,72.60
2019-04-03T05:06:28.595Z,72.70
2019-04-03T05:07:01.087Z,72.70
2019-04-03T05:07:33.709Z,72.50
2019-04-03T05:08:07.282Z,72.50
2019-04-03T05:08:39.889Z,72.60
2019-04-03T05:09:12.597Z,72.40
2019-04-03T05:09:45.622Z,72.40
2019-04-03T05:10:18.553Z,72.60
2019-04-03T05:10:51.542Z,72.70
2019-04-03T05:11:24.116Z,72.80
2019-04-03T05:11:59.059Z,72.70
2019-04-03T05:12:32.468Z,72.70
2019-04-03T05:13:06.941Z,72.70
2019-04-03T05:13:39.507Z,72.60
2019-04-03T05:14:13.015Z,72.60
2019-04-03T05:14:48.509Z,72.60
2019-04-03T05:15:23.441Z,72.60
2019-04-03T05:15:55.187Z,72.50
2019-04-03T05:16:27.849Z,72.50
2019-04-03T05:17:01.317Z,72.60
2019-04-03T05:17:34.315Z,72.60
2019-04-03T05:18:07.761Z,72.80
2019-04-03T05:18:40.354Z,72.80
2019-04-03T05:19:18.519Z,72.80
2019-04-03T05:19:48.924Z,72.80
2019-04-03T05:20:22.269Z,72.70
2019-04-03T05:20:55.339Z,72.50
2019-04-03T05:21:28.387Z,72.30
2019-04-03T05:22:01.888Z,72.40
2019-04-03T05:22:34.850Z,72.40
2019-04-03T05:23:08.246Z,72.40
2019-04-03T05:23:45.100Z,72.30
2019-04-03T05:24:17.974Z,72.50
2019-04-03T05:24:50.680Z,72.50
2019-04-03T05:25:24.103Z,72.40
2019-04-03T05:25:57.811Z,72.40
2019-04-03T05:26:32.700Z,72.20
2019-04-03T05:27:07.938Z,72.40
2019-04-03T05:27:42.701Z,72.40
2019-04-03T05:28:15.971Z,72.40
2019-04-03T05:28:54.565Z,72.40
2019-04-03T05:29:23.702Z,72.40
2019-04-03T05:29:57.647Z,72.30
2019-04-03T05:30:33.346Z,72.30
2019-04-03T05:31:07.825Z,72.40
2019-04-03T05:31:40.612Z,72.50
2019-04-03T05:32:13.146Z,72.40
2019-04-03T05:32:46.693Z,72.30
2019-04-03T05:33:19.687Z,72.40
2019-04-03T05:33:52.332Z,72.50
2019-04-03T05:34:25.299Z,72.30
2019-04-03T05:34:58.748Z,72.30
2019-04-03T05:35:31.320Z,72.10
2019-04-03T05:36:03.953Z,72.00
2019-04-03T05:36:36.911Z,71.90
2019-04-03T05:37:12.043Z,72.00
2019-04-03T05:37:45.396Z,72.00
2019-04-03T05:38:17.984Z,71.90
2019-04-03T05:38:53.438Z,71.90
2019-04-03T05:39:25.938Z,71.70
2019-04-03T05:39:58.756Z,71.30
2019-04-03T05:40:32.534Z,71.40
2019-04-03T05:41:05.633Z,71.30
2019-04-03T05:41:38.607Z,71.20
2019-04-03T05:42:11.943Z,71.00
2019-04-03T05:42:45.020Z,71.40
2019-04-03T05:43:17.585Z,70.60
2019-04-03T05:43:50.469Z,70.30
2019-04-03T05:44:24.100Z,70.40
2019-04-03T05:44:56.755Z,70.40
2019-04-03T05:45:29.313Z,70.10
2019-04-03T05:46:02.059Z,69.50
2019-04-03T05:46:37.639Z,69.00
2019-04-03T05:47:11.700Z,68.60
2019-04-03T05:47:44.550Z,68.30
2019-04-03T05:48:18.569Z,67.90
2019-04-03T05:48:51.624Z,67.70
2019-04-03T05:49:25.319Z,67.60
2019-04-03T05:49:58.275Z,67.40
2019-04-03T05:50:30.877Z,66.90
2019-04-03T05:51:04.224Z,66.60
2019-04-03T05:51:38.091Z,66.30
2019-04-03T05:52:11.007Z,66.10
2019-04-03T05:52:44.904Z,65.50
2019-04-03T05:53:18.166Z,65.00
2019-04-03T05:53:53.550Z,65.00
2019-04-03T05:54:25.798Z,64.90
2019-04-03T05:54:58.369Z,64.80
2019-04-03T05:55:31.844Z,64.80
2019-04-03T05:56:04.431Z,64.70
2019-04-03T05:56:37.333Z,64.70
2019-04-03T05:57:11.916Z,64.30
2019-04-03T05:57:46.732Z,64.40
2019-04-03T05:58:19.479Z,64.10
2019-04-03T05:58:56.683Z,64.20
2019-04-03T05:59:27.361Z,64.30
2019-04-03T06:00:02.110Z,64.50
2019-04-03T06:00:37.708Z,64.50
2019-04-03T06:01:11.404Z,64.40
2019-04-03T06:01:46.766Z,64.00
2019-04-03T06:02:20.996Z,64.00
2019-04-03T06:02:55.750Z,64.20
2019-04-03T06:03:39.167Z,64.10
2019-04-03T06:04:03.029Z,64.20
2019-04-03T06:04:36.065Z,64.00
2019-04-03T06:05:11.458Z,64.00
2019-04-03T06:05:44.055Z,64.00
2019-04-03T06:06:18.325Z,63.80
2019-04-03T06:06:51.708Z,63.80
2019-04-03T06:07:25.427Z,64.00
2019-04-03T06:07:58.005Z,64.10
2019-04-03T06:08:30.621Z,64.30
2019-04-03T06:09:06.067Z,64.30
2019-04-03T06:09:39.878Z,64.10
2019-04-03T06:10:12.760Z,64.00
2019-04-03T06:10:45.408Z,64.00
2019-04-03T06:11:20.649Z,64.00
2019-04-03T06:11:52.903Z,63.40
2019-04-03T06:12:25.574Z,63.10
2019-04-03T06:12:58.145Z,62.90
2019-04-03T06:13:30.706Z,62.10
2019-04-03T06:14:03.417Z,61.90
2019-04-03T06:14:37.238Z,61.90
2019-04-03T06:15:12.042Z,62.10
2019-04-03T06:15:45.460Z,62.10
2019-04-03T06:16:19.021Z,61.90
2019-04-03T06:16:51.676Z,61.50
2019-04-03T06:17:24.549Z,61.20
2019-04-03T06:17:57.092Z,61.00
2019-04-03T06:18:31.600Z,61.00
2019-04-03T06:19:06.406Z,60.90
2019-04-03T06:19:39.814Z,60.80
2019-04-03T06:20:13.006Z,60.80
2019-04-03T06:20:45.537Z,60.60
2019-04-03T06:21:18.897Z,60.60
2019-04-03T06:21:52.324Z,60.70
2019-04-03T06:22:25.200Z,62.00
2019-04-03T06:22:59.190Z,61.90
2019-04-03T06:23:31.785Z,62.10
2019-04-03T06:24:05.131Z,62.20
2019-04-03T06:24:38.146Z,61.90
2019-04-03T06:25:13.629Z,61.70
2019-04-03T06:25:45.877Z,61.90
2019-04-03T06:26:19.122Z,62.20
2019-04-03T06:26:51.698Z,62.60
2019-04-03T06:27:27.599Z,63.00
2019-04-03T06:27:59.736Z,63.10
2019-04-03T06:28:33.010Z,62.90
2019-04-03T06:29:07.279Z,62.90
2019-04-03T06:29:40.327Z,63.30
2019-04-03T06:30:13.186Z,63.80
2019-04-03T06:30:46.179Z,64.00
2019-04-03T06:31:19.092Z,63.80
2019-04-03T06:31:52.016Z,64.10
2019-04-03T06:32:25.119Z,64.70
2019-04-03T06:32:59.144Z,65.10
2019-04-03T06:33:34.923Z,65.30
2019-04-03T06:34:08.121Z,65.20
2019-04-03T06:34:43.336Z,65.40
2019-04-03T06:35:15.200Z,65.50
2019-04-03T06:35:48.810Z,65.40
2019-04-03T06:36:21.840Z,65.40
2019-04-03T06:36:55.112Z,65.50
2019-04-03T06:37:29.003Z,65.50
2019-04-03T06:38:01.551Z,65.70
2019-04-03T06:38:35.502Z,65.90
2019-04-03T06:39:09.215Z,65.80
2019-04-03T06:39:41.795Z,65.70
2019-04-03T06:40:15.353Z,65.70
2019-04-03T06:40:48.582Z,65.90
2019-04-03T06:41:21.946Z,65.90
2019-04-03T06:41:54.684Z,66.10
2019-04-03T06:42:27.596Z,66.30
2019-04-03T06:43:01.533Z,66.60
2019-04-03T06:43:34.724Z,66.90
2019-04-03T06:44:07.925Z,66.70
2019-04-03T06:44:42.656Z,66.90
2019-04-03T06:45:16.264Z,66.90
2019-04-03T06:45:49.471Z,66.80
2019-04-03T06:46:23.246Z,66.20
2019-04-03T06:46:56.456Z,66.10
2019-04-03T06:47:32.212Z,65.90
2019-04-03T06:48:05.629Z,66.20
2019-04-03T06:48:38.288Z,66.30
2019-04-03T06:49:11.182Z,67.10
2019-04-03T06:49:43.691Z,66.40
2019-04-03T06:50:17.855Z,65.70
2019-04-03T06:50:50.550Z,65.70
2019-04-03T06:51:23.990Z,65.20
2019-04-03T06:51:56.970Z,65.40
2019-04-03T06:52:29.742Z,66.00
2019-04-03T06:53:03.228Z,65.50
2019-04-03T06:53:36.104Z,65.30
2019-04-03T06:54:09.973Z,65.60
2019-04-03T06:54:44.214Z,65.60
2019-04-03T06:55:16.983Z,65.40
2019-04-03T06:55:49.843Z,64.90
2019-04-03T06:56:23.655Z,65.10
2019-04-03T06:56:56.621Z,64.90
2019-04-03T06:57:30.081Z,64.80
2019-04-03T06:58:03.109Z,64.60
2019-04-03T06:58:38.981Z,64.50
2019-04-03T06:59:10.643Z,64.20
2019-04-03T06:59:44.061Z,64.50
2019-04-03T07:00:16.729Z,64.80
2019-04-03T07:00:50.287Z,64.60
2019-04-03T07:01:22.931Z,65.00
2019-04-03T07:01:56.091Z,64.60
2019-04-03T07:02:31.412Z,64.60
2019-04-03T07:03:04.018Z,65.10
2019-04-03T07:03:37.465Z,64.60
2019-04-03T07:04:10.385Z,64.50
2019-04-03T07:04:43.424Z,64.60
2019-04-03T07:05:17.171Z,64.80
2019-04-03T07:05:49.765Z,65.00
2019-04-03T07:06:22.743Z,65.00
2019-04-03T07:06:56.680Z,64.90
2019-04-03T07:07:34.274Z,65.00
2019-04-03T07:08:05.902Z,64.90
2019-04-03T07:08:41.035Z,65.10
2019-04-03T07:09:22.706Z,64.60
2019-04-03T07:09:50.431Z,64.70